Time;durP1;ratioP1;P1;durP2;ratioP2;P2;SDS_P1;SDS_P2;PMS_P1;PMS_P2;Temp;Humidity;BMP_temperature;BMP_pressure;BME280_temperature;BME280_humidity;BME280_pressure;Samples;Min_cycle;Max_cycle;Signal;HPM_P1;HPM_P2
2022/03/31 00:00:43;;;;;;;4.80;0.73;;;5.30;66.30;;;;;;5047547;28;20090;-70
2022/03/31 00:03:10;;;;;;;2.85;0.70;;;5.20;66.80;;;;;;5046756;28;20507;-71
2022/03/31 00:05:38;;;;;;;4.22;0.63;;;5.20;67.20;;;;;;5047229;28;20057;-70
2022/03/31 00:08:06;;;;;;;8.05;0.98;;;5.20;67.50;;;;;;5046505;28;20489;-71
2022/03/31 00:10:39;;;;;;;4.32;1.08;;;5.20;67.90;;;;;;5047087;28;20053;-71
2022/03/31 00:13:07;;;;;;;7.10;1.05;;;5.20;68.20;;;;;;5045274;28;20045;-71
2022/03/31 00:15:34;;;;;;;4.45;0.80;;;5.20;68.50;;;;;;5047783;28;20060;-71
2022/03/31 00:18:01;;;;;;;4.50;0.90;;;5.20;69.00;;;;;;5046210;28;20056;-71
2022/03/31 00:33:54;;;;;;;7.10;0.88;;;5.20;69.80;;;;;;5047212;28;20666;-71
2022/03/31 00:36:19;;;;;;;5.43;1.30;;;5.20;69.90;;;;;;5046871;28;20110;-71
2022/03/31 00:39:28;;;;;;;4.07;0.85;;;5.20;70.10;;;;;;5048352;28;20090;-71
2022/03/31 00:41:38;;;;;;;5.03;1.10;;;5.20;70.40;;;;;;5049627;28;20076;-71
2022/03/31 00:44:05;;;;;;;2.67;0.75;;;5.30;70.60;;;;;;5049432;28;20056;-71
2022/03/31 00:46:31;;;;;;;5.85;2.08;;;5.30;70.50;;;;;;5050809;28;20048;-71
2022/03/31 00:48:57;;;;;;;3.55;0.88;;;5.30;70.30;;;;;;5050394;28;20370;-71
2022/03/31 00:51:23;;;;;;;6.88;1.02;;;5.20;70.10;;;;;;5050679;28;20367;-71
2022/03/31 00:53:48;;;;;;;5.78;1.08;;;5.30;70.20;;;;;;5050317;28;20048;-71
2022/03/31 00:56:18;;;;;;;3.67;0.88;;;5.20;70.40;;;;;;5046198;28;20049;-71
2022/03/31 00:58:44;;;;;;;9.13;1.10;;;5.20;70.60;;;;;;5050332;28;20710;-71
2022/03/31 01:01:13;;;;;;;2.67;0.82;;;5.30;70.70;;;;;;5049866;28;20503;-71
2022/03/31 01:03:39;;;;;;;1.98;0.90;;;5.30;70.90;;;;;;5049592;28;20402;-71
2022/03/31 01:06:05;;;;;;;3.03;0.90;;;5.30;71.40;;;;;;5048812;28;20056;-72
2022/03/31 01:08:31;;;;;;;5.13;1.10;;;5.40;71.50;;;;;;5049970;28;20382;-71
2022/03/31 01:10:57;;;;;;;4.68;1.13;;;5.40;71.70;;;;;;5049446;28;20051;-71
2022/03/31 01:13:23;;;;;;;2.60;0.60;;;5.40;71.60;;;;;;5049639;28;20055;-72
2022/03/31 01:15:48;;;;;;;3.20;1.02;;;5.50;71.50;;;;;;5048761;28;20045;-71
2022/03/31 01:18:14;;;;;;;4.60;1.10;;;5.50;71.60;;;;;;5050116;28;20061;-71
2022/03/31 01:20:40;;;;;;;6.53;0.73;;;5.50;71.60;;;;;;5043169;28;20049;-71
2022/03/31 01:23:15;;;;;;;4.80;1.10;;;5.40;71.70;;;;;;5041017;28;20172;-71
2022/03/31 01:25:41;;;;;;;2.40;1.00;;;5.50;71.90;;;;;;5048633;28;20112;-71
2022/03/31 01:28:07;;;;;;;1.83;0.65;;;5.50;71.80;;;;;;5036170;28;20048;-71
2022/03/31 01:30:33;;;;;;;4.78;1.35;;;5.60;71.90;;;;;;5032372;28;20038;-70
2022/03/31 01:32:59;;;;;;;4.57;0.82;;;5.50;71.80;;;;;;5050681;28;20048;-71
2022/03/31 01:35:26;;;;;;;3.45;0.65;;;5.60;71.90;;;;;;5039690;28;20041;-70
2022/03/31 01:37:51;;;;;;;5.40;1.05;;;5.60;71.90;;;;;;5050878;28;20094;-70
2022/03/31 01:40:17;;;;;;;5.00;1.00;;;5.60;71.80;;;;;;5050294;28;20159;-70
2022/03/31 01:42:44;;;;;;;4.95;1.10;;;5.60;71.80;;;;;;5044882;28;20051;-71
2022/03/31 01:45:13;;;;;;;3.70;0.85;;;5.60;71.80;;;;;;5049736;28;20052;-71
2022/03/31 01:47:39;;;;;;;3.50;0.68;;;5.60;71.80;;;;;;5044882;28;20057;-71
2022/03/31 01:50:09;;;;;;;6.30;1.10;;;5.60;71.70;;;;;;5048189;28;20044;-71
2022/03/31 01:52:35;;;;;;;5.47;1.08;;;5.60;71.80;;;;;;5045172;28;20040;-71
2022/03/31 01:55:01;;;;;;;2.78;0.90;;;5.60;71.90;;;;;;5048486;28;20127;-71
2022/03/31 01:57:27;;;;;;;5.47;0.70;;;5.60;71.80;;;;;;5049993;28;20143;-71
2022/03/31 01:59:52;;;;;;;8.55;1.13;;;5.60;72.00;;;;;;5049744;28;20056;-70
2022/03/31 02:02:18;;;;;;;7.25;0.90;;;5.70;72.10;;;;;;5048391;28;20044;-71
2022/03/31 02:04:44;;;;;;;4.63;1.25;;;5.70;72.00;;;;;;5049238;28;20414;-71
2022/03/31 02:07:11;;;;;;;5.30;0.80;;;5.60;72.10;;;;;;5050520;28;20379;-71
2022/03/31 02:09:36;;;;;;;5.07;1.02;;;5.70;72.00;;;;;;5048862;28;20262;-71
2022/03/31 02:12:02;;;;;;;5.20;1.70;;;5.60;72.00;;;;;;5049438;28;20064;-71
2022/03/31 02:14:28;;;;;;;3.88;0.80;;;5.60;72.00;;;;;;5049441;28;20060;-71
2022/03/31 02:16:58;;;;;;;4.82;0.70;;;5.50;71.60;;;;;;5035465;28;20098;-71
2022/03/31 02:19:24;;;;;;;4.57;0.90;;;5.30;71.70;;;;;;5045115;28;20056;-71
2022/03/31 02:21:50;;;;;;;6.53;1.00;;;5.10;72.40;;;;;;5049852;28;20550;-71
2022/03/31 02:24:16;;;;;;;4.32;1.20;;;5.00;72.40;;;;;;5048865;28;20048;-71
2022/03/31 02:26:42;;;;;;;2.50;0.82;;;4.90;72.40;;;;;;5049813;28;20101;-71
2022/03/31 02:29:07;;;;;;;1.90;0.80;;;4.90;72.50;;;;;;5047244;28;20134;-71
2022/03/31 02:31:33;;;;;;;3.55;0.93;;;4.90;72.60;;;;;;5049119;28;20053;-71
2022/03/31 02:33:59;;;;;;;7.32;1.00;;;5.00;72.60;;;;;;5049872;28;20038;-71
2022/03/31 02:36:26;;;;;;;2.67;0.82;;;5.00;72.50;;;;;;5047979;28;20532;-71
2022/03/31 02:38:52;;;;;;;3.95;0.95;;;5.00;72.70;;;;;;5048161;28;20397;-71
2022/03/31 02:41:19;;;;;;;9.55;1.20;;;5.00;72.50;;;;;;5043313;28;20056;-71
2022/03/31 02:43:44;;;;;;;9.10;1.17;;;4.90;72.40;;;;;;5042714;28;20045;-71
2022/03/31 02:46:10;;;;;;;9.25;1.08;;;4.90;72.10;;;;;;5049047;28;20048;-71
2022/03/31 02:48:36;;;;;;;7.20;1.20;;;4.90;71.90;;;;;;5049933;28;20056;-71
2022/03/31 02:51:02;;;;;;;5.45;1.13;;;4.80;71.70;;;;;;5047605;28;20048;-71
2022/03/31 02:56:12;;;;;;;4.40;0.90;;;4.70;71.50;;;;;;5048134;28;20387;-71
2022/03/31 02:58:37;;;;;;;4.80;0.90;;;4.70;71.30;;;;;;5047920;28;20075;-71
2022/03/31 03:01:03;;;;;;;4.70;1.17;;;4.70;71.20;;;;;;5044376;28;20458;-71
2022/03/31 03:03:30;;;;;;;3.78;1.13;;;4.60;71.40;;;;;;5037987;28;20086;-71
2022/03/31 03:05:56;;;;;;;7.65;1.60;;;4.60;71.90;;;;;;5047375;28;20049;-71
2022/03/31 03:08:22;;;;;;;9.45;2.72;;;4.60;71.70;;;;;;5046715;28;20438;-71
2022/03/31 03:10:48;;;;;;;5.70;1.30;;;4.60;71.90;;;;;;5049320;28;20040;-71
2022/03/31 03:13:17;;;;;;;7.47;1.45;;;4.60;72.00;;;;;;5047987;28;20040;-71
2022/03/31 03:15:43;;;;;;;3.70;1.30;;;4.50;72.00;;;;;;5049612;28;20405;-71
2022/03/31 03:18:08;;;;;;;4.57;1.25;;;4.60;72.10;;;;;;5047640;28;20422;-71
2022/03/31 03:20:34;;;;;;;2.90;1.20;;;4.60;72.10;;;;;;5048937;28;20052;-71
2022/03/31 03:23:00;;;;;;;8.35;1.40;;;4.60;72.20;;;;;;5043569;28;20052;-71
2022/03/31 03:25:25;;;;;;;8.35;1.38;;;4.60;72.10;;;;;;5049332;28;20040;-71
2022/03/31 03:27:51;;;;;;;4.78;1.15;;;4.60;72.20;;;;;;5044544;28;20486;-71
2022/03/31 03:30:18;;;;;;;6.00;1.27;;;4.60;72.40;;;;;;5048513;28;20069;-71
2022/03/31 03:32:45;;;;;;;5.45;1.52;;;4.60;72.40;;;;;;5047802;28;20128;-71
2022/03/31 03:35:12;;;;;;;6.40;1.33;;;4.60;72.40;;;;;;5048341;28;20041;-71
2022/03/31 03:37:39;;;;;;;5.75;1.45;;;4.70;72.60;;;;;;5045932;28;20111;-70
2022/03/31 03:40:06;;;;;;;4.03;1.10;;;4.70;72.60;;;;;;5048152;28;20436;-71
2022/03/31 03:42:32;;;;;;;4.00;1.23;;;4.60;72.90;;;;;;5047726;28;20060;-71
2022/03/31 03:44:59;;;;;;;5.03;1.42;;;4.60;72.80;;;;;;5048018;28;20112;-71
2022/03/31 03:47:24;;;;;;;3.90;1.00;;;4.70;73.00;;;;;;5032669;28;20045;-71
2022/03/31 03:49:50;;;;;;;4.07;1.17;;;4.70;73.00;;;;;;5042902;28;20123;-71
2022/03/31 03:52:16;;;;;;;3.25;1.35;;;4.70;73.00;;;;;;5046088;28;20076;-71
2022/03/31 03:54:42;;;;;;;4.78;1.48;;;4.70;73.30;;;;;;5048269;28;20132;-71
2022/03/31 03:57:08;;;;;;;5.25;1.80;;;4.70;73.50;;;;;;5047546;28;20446;-71
2022/03/31 03:59:34;;;;;;;4.65;3.47;;;4.70;73.70;;;;;;5048173;28;20090;-71
2022/03/31 04:01:59;;;;;;;5.30;2.50;;;4.70;74.10;;;;;;5037294;28;20120;-71
2022/03/31 04:04:31;;;;;;;5.43;2.60;;;4.70;74.30;;;;;;5044487;28;20074;-71
2022/03/31 04:06:57;;;;;;;4.68;3.03;;;4.70;74.70;;;;;;5042824;28;20060;-71
2022/03/31 04:09:23;;;;;;;6.38;3.28;;;4.70;75.10;;;;;;5046136;28;20502;-71
2022/03/31 04:11:49;;;;;;;6.40;2.78;;;4.70;75.60;;;;;;5043795;28;20052;-71
2022/03/31 04:14:14;;;;;;;4.63;2.90;;;4.70;75.90;;;;;;5038285;28;20081;-71
2022/03/31 04:16:40;;;;;;;3.40;2.47;;;4.70;76.30;;;;;;5035414;28;20396;-70
2022/03/31 04:19:09;;;;;;;3.05;2.50;;;4.70;76.90;;;;;;5029849;28;20041;-70
2022/03/31 04:21:38;;;;;;;3.13;1.95;;;4.70;77.40;;;;;;5046351;28;20041;-70
2022/03/31 04:24:04;;;;;;;2.97;1.83;;;4.80;77.80;;;;;;5046246;28;20479;-70
2022/03/31 04:26:31;;;;;;;2.67;1.90;;;4.40;77.50;;;;;;5047133;28;20064;-70
2022/03/31 04:28:57;;;;;;;3.05;1.88;;;4.20;78.00;;;;;;5047330;28;20493;-70
2022/03/31 04:31:23;;;;;;;1.65;1.48;;;3.90;78.40;;;;;;5046599;28;20041;-70
2022/03/31 04:33:49;;;;;;;1.63;1.48;;;3.70;78.70;;;;;;5034392;28;20045;-70
2022/03/31 04:36:15;;;;;;;2.88;1.88;;;3.60;78.80;;;;;;5047102;28;20194;-70
2022/03/31 04:38:41;;;;;;;2.55;1.63;;;3.40;78.90;;;;;;5036790;28;20533;-70
2022/03/31 04:41:07;;;;;;;3.95;2.50;;;3.30;79.00;;;;;;5041896;28;20119;-70
2022/03/31 04:43:32;;;;;;;2.72;2.53;;;3.20;79.40;;;;;;5047037;28;20081;-70
2022/03/31 04:45:58;;;;;;;5.32;3.10;;;3.20;79.50;;;;;;5046723;28;20053;-70
2022/03/31 04:48:23;;;;;;;3.40;3.00;;;3.30;79.60;;;;;;5047260;28;20033;-69
2022/03/31 04:50:49;;;;;;;4.38;3.25;;;3.30;79.80;;;;;;5046613;28;20493;-69
2022/03/31 04:53:17;;;;;;;4.40;3.75;;;3.30;80.10;;;;;;5044517;28;20045;-70
2022/03/31 04:55:43;;;;;;;4.88;3.38;;;3.20;80.50;;;;;;5044975;28;20053;-69
2022/03/31 04:58:08;;;;;;;6.43;4.13;;;3.20;80.50;;;;;;5045625;28;20036;-70
2022/03/31 05:00:34;;;;;;;8.02;4.10;;;3.20;80.90;;;;;;5043305;28;20505;-71
2022/03/31 05:03:00;;;;;;;6.97;3.92;;;3.20;81.20;;;;;;5035784;28;20520;-68
2022/03/31 05:05:26;;;;;;;6.07;4.07;;;3.20;81.20;;;;;;5043158;28;20418;-69
2022/03/31 05:07:52;;;;;;;4.47;3.50;;;3.20;81.50;;;;;;5034122;28;20115;-69
2022/03/31 05:10:18;;;;;;;5.20;3.95;;;3.20;81.70;;;;;;5047283;28;20476;-71
2022/03/31 05:12:43;;;;;;;4.38;3.97;;;3.20;81.80;;;;;;5038132;28;20053;-70
2022/03/31 05:15:09;;;;;;;5.07;3.80;;;3.20;82.20;;;;;;5047061;28;20098;-71
2022/03/31 05:17:35;;;;;;;4.47;3.83;;;3.20;82.10;;;;;;5043936;28;20033;-69
2022/03/31 05:20:12;;;;;;;4.57;4.18;;;3.20;82.30;;;;;;5029534;28;20111;-70
2022/03/31 05:22:39;;;;;;;4.55;4.15;;;3.30;82.40;;;;;;5047375;28;20033;-70
2022/03/31 05:25:07;;;;;;;4.40;4.00;;;3.20;82.50;;;;;;5047536;28;20607;-69
2022/03/31 05:27:33;;;;;;;5.18;4.68;;;3.20;82.50;;;;;;5039244;28;20464;-69
2022/03/31 05:29:59;;;;;;;4.00;3.65;;;3.30;82.60;;;;;;5050471;28;20497;-70
2022/03/31 05:32:25;;;;;;;4.13;3.55;;;3.40;82.90;;;;;;5034066;28;20080;-69
2022/03/31 05:34:51;;;;;;;4.35;3.67;;;3.40;82.80;;;;;;5050665;28;20110;-69
2022/03/31 05:37:17;;;;;;;4.03;3.38;;;3.40;83.20;;;;;;5049340;28;20069;-70
2022/03/31 05:39:43;;;;;;;3.90;3.60;;;3.60;83.10;;;;;;5049442;28;20533;-69
2022/03/31 05:42:09;;;;;;;4.25;3.78;;;3.50;83.20;;;;;;5031959;28;20508;-70
2022/03/31 05:44:35;;;;;;;4.05;3.70;;;3.50;83.30;;;;;;5044567;28;20045;-69
2022/03/31 05:47:01;;;;;;;4.47;3.67;;;3.50;83.70;;;;;;5047359;28;20049;-70
2022/03/31 05:49:27;;;;;;;4.43;3.50;;;3.50;83.80;;;;;;5049055;28;20049;-70
2022/03/31 05:51:53;;;;;;;4.65;3.28;;;3.50;83.70;;;;;;5049876;28;20037;-69
2022/03/31 05:54:18;;;;;;;4.55;3.47;;;3.50;83.60;;;;;;5049489;28;20156;-69
2022/03/31 05:56:44;;;;;;;6.47;5.18;;;3.60;83.60;;;;;;5027270;28;20863;-69
2022/03/31 05:59:10;;;;;;;4.30;3.22;;;3.60;83.40;;;;;;5049428;28;20084;-70
2022/03/31 06:01:36;;;;;;;4.10;3.22;;;3.60;83.40;;;;;;5049451;28;20049;-69
2022/03/31 06:04:01;;;;;;;6.80;3.58;;;3.60;83.70;;;;;;5045905;28;20102;-69
2022/03/31 06:06:27;;;;;;;3.58;3.28;;;3.60;83.90;;;;;;5046039;28;20508;-70
2022/03/31 06:08:52;;;;;;;4.10;3.70;;;3.60;83.70;;;;;;5049420;28;20080;-69
2022/03/31 06:11:18;;;;;;;6.18;3.72;;;3.50;84.10;;;;;;5047157;28;20037;-70
2022/03/31 06:13:44;;;;;;;4.00;3.65;;;3.60;84.30;;;;;;5046665;28;20124;-69
2022/03/31 06:16:13;;;;;;;4.18;3.60;;;3.60;84.30;;;;;;5047621;28;20098;-69
2022/03/31 06:18:38;;;;;;;5.32;4.00;;;3.70;84.00;;;;;;5050036;28;20095;-69
2022/03/31 06:21:04;;;;;;;5.03;3.95;;;3.60;84.00;;;;;;5048964;28;20037;-70
2022/03/31 06:23:29;;;;;;;6.05;4.00;;;3.70;84.30;;;;;;5046069;28;20049;-70
2022/03/31 06:25:55;;;;;;;7.78;4.05;;;3.70;84.20;;;;;;5036206;28;20178;-70
2022/03/31 06:28:21;;;;;;;6.35;3.58;;;3.70;84.30;;;;;;5048527;28;20041;-70
2022/03/31 06:30:48;;;;;;;4.40;3.65;;;3.70;84.50;;;;;;5050460;28;20120;-70
2022/03/31 06:33:18;;;;;;;6.38;4.30;;;3.80;84.30;;;;;;5048970;28;20040;-70
2022/03/31 06:35:44;;;;;;;4.40;3.80;;;3.70;84.50;;;;;;5029994;28;20041;-70
2022/03/31 06:38:11;;;;;;;7.53;4.10;;;3.80;84.60;;;;;;5044526;28;20815;-71
2022/03/31 06:40:38;;;;;;;4.82;4.07;;;3.80;84.50;;;;;;5031083;28;20534;-70
2022/03/31 06:43:05;;;;;;;5.07;3.88;;;3.80;84.70;;;;;;5031739;28;20127;-70
2022/03/31 06:45:31;;;;;;;4.68;4.20;;;3.90;84.80;;;;;;5049450;28;20113;-70
2022/03/31 06:47:58;;;;;;;5.28;4.38;;;3.90;84.70;;;;;;5049135;28;20059;-70
2022/03/31 06:50:23;;;;;;;4.05;3.75;;;4.00;84.70;;;;;;5050434;28;20056;-70
2022/03/31 06:52:50;;;;;;;3.85;3.55;;;4.00;84.50;;;;;;5050019;28;20053;-72
2022/03/31 06:55:16;;;;;;;4.60;4.20;;;4.00;84.40;;;;;;5049039;28;20132;-73
2022/03/31 06:57:41;;;;;;;4.55;4.22;;;3.90;84.60;;;;;;5043396;28;20319;-72
2022/03/31 07:00:08;;;;;;;7.65;4.07;;;3.90;84.80;;;;;;5048039;28;20041;-71
2022/03/31 07:02:33;;;;;;;4.13;3.83;;;4.10;84.60;;;;;;5050149;28;20044;-70
2022/03/31 07:04:59;;;;;;;4.43;3.97;;;4.00;84.70;;;;;;5042132;28;20061;-71
2022/03/31 07:07:25;;;;;;;4.50;3.88;;;4.00;84.80;;;;;;5038424;28;20421;-70
2022/03/31 07:09:51;;;;;;;4.85;4.45;;;4.00;84.80;;;;;;5044956;28;20292;-70
2022/03/31 07:12:17;;;;;;;4.30;4.00;;;4.10;84.80;;;;;;5060287;28;20058;-70
2022/03/31 07:14:44;;;;;;;4.25;3.95;;;4.20;84.60;;;;;;5060775;28;20754;-70
2022/03/31 07:17:10;;;;;;;4.35;3.95;;;4.20;84.60;;;;;;5067009;28;20523;-71
2022/03/31 07:19:35;;;;;;;4.28;3.97;;;4.20;84.60;;;;;;5049166;28;20072;-70
2022/03/31 07:22:01;;;;;;;4.32;4.00;;;4.20;84.60;;;;;;5046089;28;20136;-71
2022/03/31 07:24:27;;;;;;;4.55;4.25;;;4.20;84.60;;;;;;5038243;28;20132;-70
2022/03/31 07:26:53;;;;;;;4.43;4.10;;;4.20;84.60;;;;;;5039301;28;20560;-70
2022/03/31 07:29:18;;;;;;;5.15;4.65;;;4.30;84.60;;;;;;5049123;28;20043;-70
2022/03/31 07:31:44;;;;;;;4.60;4.20;;;4.30;84.40;;;;;;5058506;28;20052;-71
2022/03/31 07:34:10;;;;;;;4.90;4.50;;;4.20;84.50;;;;;;5048857;28;20120;-72
2022/03/31 07:36:35;;;;;;;5.10;4.63;;;4.20;84.40;;;;;;5048647;28;20075;-69
2022/03/31 07:39:01;;;;;;;5.05;4.65;;;4.20;84.60;;;;;;5048019;28;20076;-70
2022/03/31 07:41:27;;;;;;;4.70;4.38;;;4.20;84.70;;;;;;5048009;28;20045;-70
2022/03/31 07:43:52;;;;;;;4.82;4.43;;;4.30;84.60;;;;;;5045102;28;20103;-70
2022/03/31 07:46:18;;;;;;;4.45;4.07;;;4.30;84.30;;;;;;5045459;28;20051;-69
2022/03/31 07:48:44;;;;;;;4.65;4.30;;;4.30;84.30;;;;;;5048312;28;20045;-73
2022/03/31 07:51:09;;;;;;;5.20;4.80;;;4.30;84.30;;;;;;5064777;28;20091;-72
2022/03/31 07:53:35;;;;;;;4.40;4.05;;;4.30;84.40;;;;;;5047773;28;20048;-71
2022/03/31 07:56:05;;;;;;;5.03;4.63;;;4.30;84.50;;;;;;5049056;28;20080;-71
2022/03/31 07:58:32;;;;;;;5.45;5.05;;;4.30;84.70;;;;;;5048838;28;20187;-71
2022/03/31 08:00:58;;;;;;;5.30;4.85;;;4.30;84.60;;;;;;5047707;28;20433;-72
2022/03/31 08:03:24;;;;;;;7.22;6.43;;;4.30;84.60;;;;;;5048605;28;20102;-72
2022/03/31 08:05:51;;;;;;;7.18;6.47;;;4.40;84.40;;;;;;5047141;28;20167;-72
2022/03/31 08:08:20;;;;;;;10.23;8.38;;;4.40;84.50;;;;;;5047776;28;20148;-73
2022/03/31 08:10:47;;;;;;;9.75;8.77;;;4.40;84.60;;;;;;5047016;28;20084;-68
2022/03/31 08:13:13;;;;;;;12.07;9.68;;;4.50;84.50;;;;;;5048748;28;20564;-68
2022/03/31 08:15:39;;;;;;;11.82;9.60;;;4.50;84.50;;;;;;5048873;28;20040;-69
2022/03/31 08:18:05;;;;;;;8.82;7.68;;;4.40;84.50;;;;;;5048811;28;20793;-68
2022/03/31 08:20:31;;;;;;;8.38;7.30;;;4.60;84.20;;;;;;5048549;28;20403;-69
2022/03/31 08:22:57;;;;;;;8.38;7.57;;;4.50;84.00;;;;;;5047456;28;20071;-70
2022/03/31 08:25:23;;;;;;;6.68;6.07;;;4.50;84.20;;;;;;5046508;28;20076;-69
2022/03/31 08:27:48;;;;;;;6.68;6.10;;;4.60;84.20;;;;;;5047311;28;20568;-69
2022/03/31 08:30:18;;;;;;;5.70;5.20;;;4.60;84.00;;;;;;5060575;28;20049;-67
2022/03/31 08:32:46;;;;;;;5.32;4.93;;;4.40;84.10;;;;;;5068773;28;20131;-68
2022/03/31 08:35:13;;;;;;;5.10;4.70;;;4.50;84.10;;;;;;5029803;28;20180;-70
2022/03/31 08:37:39;;;;;;;5.55;5.15;;;4.40;84.10;;;;;;5054306;28;20374;-68
2022/03/31 08:40:07;;;;;;;5.38;4.97;;;4.50;84.10;;;;;;5068841;28;20127;-68
2022/03/31 08:42:32;;;;;;;5.68;5.18;;;4.50;84.10;;;;;;5062494;28;20041;-70
2022/03/31 08:45:00;;;;;;;5.07;4.68;;;4.50;84.20;;;;;;5068762;28;20052;-68
2022/03/31 08:47:27;;;;;;;5.15;4.75;;;4.50;84.10;;;;;;5061779;28;20044;-68
2022/03/31 08:49:56;;;;;;;5.30;4.90;;;4.50;83.90;;;;;;5044887;28;20041;-69
2022/03/31 08:52:23;;;;;;;4.65;4.35;;;4.50;83.90;;;;;;5040698;28;20037;-67
2022/03/31 08:54:49;;;;;;;7.07;4.68;;;4.50;83.90;;;;;;5046900;28;20102;-68
2022/03/31 08:57:16;;;;;;;5.00;4.60;;;4.40;84.00;;;;;;5050570;28;20040;-67
2022/03/31 08:59:42;;;;;;;4.82;4.43;;;4.40;83.90;;;;;;5050601;28;20040;-68
2022/03/31 09:02:09;;;;;;;4.63;4.32;;;4.40;83.90;;;;;;5050281;28;20109;-68
2022/03/31 09:04:35;;;;;;;4.50;4.20;;;4.40;84.00;;;;;;5051550;28;20057;-67
2022/03/31 09:07:06;;;;;;;8.55;4.78;;;4.40;84.10;;;;;;5050917;28;20071;-67
2022/03/31 09:09:43;;;;;;;4.75;4.35;;;4.40;83.90;;;;;;5051378;28;20037;-68
2022/03/31 09:12:08;;;;;;;5.65;5.25;;;4.40;84.10;;;;;;5049469;28;20505;-67
2022/03/31 09:14:34;;;;;;;5.70;5.20;;;4.40;84.20;;;;;;5050750;28;20112;-67
2022/03/31 09:17:14;;;;;;;5.20;4.80;;;4.40;84.40;;;;;;5051423;28;20043;-67
2022/03/31 09:19:39;;;;;;;5.35;4.95;;;4.50;84.10;;;;;;5051041;28;20410;-67
2022/03/31 09:22:05;;;;;;;6.22;5.72;;;4.40;84.10;;;;;;5049057;28;20275;-67
2022/03/31 09:24:31;;;;;;;5.20;4.80;;;4.40;84.20;;;;;;5050644;28;20120;-68
2022/03/31 09:26:59;;;;;;;5.50;5.07;;;4.40;84.30;;;;;;5050512;28;20040;-68
2022/03/31 09:29:30;;;;;;;5.80;5.30;;;4.30;84.20;;;;;;5050145;28;20084;-68
2022/03/31 09:32:10;;;;;;;5.38;4.97;;;4.50;84.20;;;;;;5046358;28;20480;-68
2022/03/31 09:34:44;;;;;;;5.45;4.97;;;4.50;83.70;;;;;;5049536;28;20053;-67
2022/03/31 09:37:11;;;;;;;6.97;5.40;;;4.40;83.70;;;;;;5032003;28;20056;-68
2022/03/31 09:39:37;;;;;;;5.82;5.32;;;4.40;83.90;;;;;;5062056;28;20053;-68
2022/03/31 09:42:13;;;;;;;5.18;4.78;;;4.50;84.00;;;;;;5051001;28;20040;-68
2022/03/31 09:44:41;;;;;;;4.80;4.40;;;4.40;84.00;;;;;;5050811;28;20045;-67
2022/03/31 09:47:08;;;;;;;5.50;5.07;;;4.40;84.00;;;;;;5050222;28;20064;-68
2022/03/31 09:49:34;;;;;;;5.43;4.93;;;4.30;84.10;;;;;;5050805;28;20127;-69
2022/03/31 09:52:02;;;;;;;5.50;5.00;;;4.40;84.40;;;;;;5050100;28;20123;-68
2022/03/31 09:54:30;;;;;;;7.45;6.60;;;4.50;83.90;;;;;;5050799;28;20052;-68
2022/03/31 09:56:59;;;;;;;6.20;5.70;;;4.30;83.60;;;;;;5027111;28;20226;-68
2022/03/31 09:59:38;;;;;;;6.60;6.00;;;4.30;84.00;;;;;;5048942;28;20045;-67
2022/03/31 10:02:04;;;;;;;6.35;5.85;;;4.30;83.80;;;;;;5038265;28;20049;-68
2022/03/31 10:04:31;;;;;;;6.75;6.15;;;4.20;84.00;;;;;;5048863;28;20036;-69
2022/03/31 10:06:58;;;;;;;6.45;5.85;;;4.20;84.10;;;;;;5048958;28;20488;-67
2022/03/31 10:09:25;;;;;;;6.03;5.53;;;4.30;84.30;;;;;;5048752;28;20107;-68
2022/03/31 10:12:31;;;;;;;6.70;6.20;;;4.20;84.30;;;;;;5049220;28;20052;-67
2022/03/31 10:15:09;;;;;;;5.70;5.30;;;4.20;84.30;;;;;;5038275;28;20065;-68
2022/03/31 10:17:35;;;;;;;5.50;5.10;;;4.20;84.30;;;;;;5050245;28;20497;-68
2022/03/31 10:20:12;;;;;;;4.80;4.40;;;4.20;84.10;;;;;;5050441;28;20052;-68
2022/03/31 10:25:41;;;;;;;4.23;3.93;;;4.10;84.00;;;;;;5054362;28;20103;-68
2022/03/31 10:28:32;;;;;;;4.45;4.05;;;4.10;83.50;;;;;;5047779;28;20135;-67
2022/03/31 10:31:04;;;;;;;4.40;4.00;;;4.00;83.40;;;;;;5049982;28;20506;-67
2022/03/31 10:33:43;;;;;;;5.25;4.75;;;3.90;83.60;;;;;;5049755;28;20059;-67
2022/03/31 10:36:13;;;;;;;4.95;4.55;;;3.90;83.70;;;;;;5049962;28;20505;-67
2022/03/31 10:38:58;;;;;;;5.05;4.55;;;4.00;83.90;;;;;;5049231;28;20505;-67
2022/03/31 10:41:31;;;;;;;5.15;4.75;;;3.90;83.40;;;;;;5047265;28;20048;-68
2022/03/31 10:43:58;;;;;;;5.07;4.65;;;3.90;83.80;;;;;;5049640;28;20064;-69
2022/03/31 10:46:25;;;;;;;5.85;5.05;;;3.90;84.20;;;;;;5043561;28;20099;-71
2022/03/31 10:48:55;;;;;;;5.07;4.57;;;4.00;83.90;;;;;;5047907;28;20421;-69
2022/03/31 10:51:50;;;;;;;4.57;4.28;;;4.10;83.80;;;;;;5044074;28;20049;-69
2022/03/31 10:54:29;;;;;;;4.82;4.43;;;4.00;83.50;;;;;;5051685;28;20052;-68
2022/03/31 10:57:08;;;;;;;5.20;4.80;;;4.10;83.80;;;;;;5048451;28;20505;-69
2022/03/31 10:59:35;;;;;;;5.13;4.63;;;4.00;83.70;;;;;;5041106;28;20128;-69
2022/03/31 11:02:13;;;;;;;5.28;4.75;;;4.10;83.60;;;;;;5048491;28;20049;-68
2022/03/31 11:04:51;;;;;;;4.85;4.45;;;3.90;83.30;;;;;;5040356;28;20045;-68
2022/03/31 11:07:22;;;;;;;4.90;4.50;;;3.90;83.20;;;;;;5045506;28;20481;-68
2022/03/31 11:09:59;;;;;;;5.22;4.72;;;3.80;83.00;;;;;;5047575;28;20466;-69
2022/03/31 11:12:28;;;;;;;5.03;4.63;;;3.80;83.20;;;;;;5049396;28;20045;-69
2022/03/31 11:15:02;;;;;;;5.00;4.55;;;3.80;83.50;;;;;;5043760;28;20335;-68
2022/03/31 11:17:29;;;;;;;5.55;4.88;;;3.80;83.50;;;;;;5048262;28;20405;-68
2022/03/31 11:19:59;;;;;;;5.53;5.03;;;3.80;83.40;;;;;;5048229;28;20057;-68
2022/03/31 11:22:28;;;;;;;4.20;3.80;;;3.70;83.40;;;;;;5047153;28;20090;-68
2022/03/31 11:24:56;;;;;;;4.95;4.55;;;3.80;83.30;;;;;;5037833;28;20456;-68
2022/03/31 11:27:36;;;;;;;4.43;4.03;;;3.60;83.20;;;;;;5042527;28;20535;-68
2022/03/31 11:30:13;;;;;;;4.60;4.18;;;3.70;83.30;;;;;;5048608;28;20114;-69
2022/03/31 11:32:41;;;;;;;4.85;4.45;;;3.70;83.20;;;;;;5046314;28;20490;-68
2022/03/31 11:35:16;;;;;;;5.53;4.07;;;3.60;83.30;;;;;;5047497;28;20041;-68
2022/03/31 11:37:51;;;;;;;5.25;4.75;;;3.70;83.30;;;;;;5045970;28;20424;-68
2022/03/31 11:40:23;;;;;;;5.45;4.95;;;3.50;83.10;;;;;;5047598;28;20044;-68
2022/03/31 11:42:51;;;;;;;4.97;4.50;;;3.40;83.30;;;;;;5043414;28;20045;-68
2022/03/31 11:45:41;;;;;;;6.90;5.75;;;3.50;83.30;;;;;;5043752;28;20029;-68
2022/03/31 11:48:32;;;;;;;13.73;7.38;;;3.40;83.10;;;;;;5038202;28;20037;-66
2022/03/31 11:51:01;;;;;;;7.80;6.38;;;3.80;86.80;;;;;;5048116;28;20619;-65
2022/03/31 11:53:37;;;;;;;5.97;5.38;;;3.90;85.10;;;;;;5028798;28;20091;-68
2022/03/31 11:56:12;;;;;;;6.07;5.55;;;3.80;84.30;;;;;;5047845;28;20052;-68
2022/03/31 11:58:43;;;;;;;5.07;4.68;;;3.70;83.60;;;;;;5048403;28;20041;-68
2022/03/31 12:01:09;;;;;;;6.32;4.70;;;3.70;83.00;;;;;;5030036;28;20076;-68
2022/03/31 12:03:37;;;;;;;5.25;4.85;;;3.50;82.80;;;;;;5045892;28;20096;-68
2022/03/31 12:06:05;;;;;;;5.03;4.60;;;3.40;83.00;;;;;;5046587;28;20103;-68
2022/03/31 12:08:31;;;;;;;5.13;4.65;;;3.40;83.20;;;;;;5047251;28;20069;-68
2022/03/31 12:10:58;;;;;;;5.55;5.13;;;3.20;83.40;;;;;;5047257;28;20041;-69
2022/03/31 12:13:26;;;;;;;5.30;3.75;;;3.30;83.70;;;;;;5045464;28;20287;-68
2022/03/31 12:16:06;;;;;;;5.10;4.60;;;3.30;83.60;;;;;;5046433;28;20576;-68
2022/03/31 12:18:34;;;;;;;5.22;4.38;;;3.20;83.90;;;;;;5045089;28;20108;-68
2022/03/31 12:21:01;;;;;;;5.75;4.32;;;3.10;83.70;;;;;;5044922;28;20553;-71
2022/03/31 12:23:27;;;;;;;4.75;4.35;;;3.10;83.70;;;;;;5043136;28;20052;-67
2022/03/31 12:25:53;;;;;;;5.15;4.65;;;2.90;83.70;;;;;;5045543;28;20397;-68
2022/03/31 12:28:23;;;;;;;6.60;4.72;;;2.80;84.20;;;;;;5049425;28;20509;-69
2022/03/31 12:30:56;;;;;;;5.30;4.80;;;2.80;84.80;;;;;;5046912;28;20045;-69
2022/03/31 12:33:34;;;;;;;5.20;4.70;;;2.90;84.50;;;;;;5051155;28;20069;-68
2022/03/31 12:36:00;;;;;;;4.95;4.50;;;2.80;84.50;;;;;;5064674;28;20047;-68
2022/03/31 12:38:46;;;;;;;4.97;4.32;;;2.60;85.10;;;;;;5061644;28;20061;-68
2022/03/31 12:41:26;;;;;;;4.65;4.25;;;2.70;85.20;;;;;;5066401;28;20057;-68
2022/03/31 12:43:58;;;;;;;4.88;4.47;;;2.60;85.10;;;;;;5053443;28;20041;-68
2022/03/31 12:46:26;;;;;;;4.83;4.43;;;2.60;85.40;;;;;;5062183;28;20207;-69
2022/03/31 12:48:53;;;;;;;4.47;4.07;;;2.50;85.40;;;;;;5056058;28;20061;-67
2022/03/31 12:51:20;;;;;;;5.28;4.78;;;2.60;85.30;;;;;;5055883;28;20033;-67
2022/03/31 12:53:46;;;;;;;5.03;4.50;;;2.60;85.70;;;;;;5053614;28;20056;-69
2022/03/31 12:56:20;;;;;;;4.30;3.90;;;2.40;85.60;;;;;;5051023;28;20515;-68
2022/03/31 12:58:45;;;;;;;5.20;4.70;;;2.40;86.00;;;;;;5049925;28;20056;-68
2022/03/31 13:01:11;;;;;;;4.47;4.07;;;2.40;85.80;;;;;;5053957;28;20063;-67
2022/03/31 13:03:37;;;;;;;3.90;3.60;;;2.50;85.60;;;;;;5053617;28;20060;-69
2022/03/31 13:06:03;;;;;;;4.32;3.92;;;2.40;85.70;;;;;;5050701;28;20060;-67
2022/03/31 13:08:29;;;;;;;4.88;4.47;;;2.30;85.80;;;;;;5049538;28;20053;-68
2022/03/31 13:10:55;;;;;;;4.43;4.03;;;2.30;86.10;;;;;;5050509;28;20094;-67
2022/03/31 13:13:21;;;;;;;4.68;4.20;;;2.20;86.30;;;;;;5051435;28;20040;-67
2022/03/31 13:15:47;;;;;;;4.63;3.95;;;2.20;86.40;;;;;;5048851;28;20041;-67
2022/03/31 13:18:12;;;;;;;4.40;4.00;;;2.20;86.50;;;;;;5049789;28;20033;-67
2022/03/31 13:20:38;;;;;;;3.63;3.33;;;2.20;86.80;;;;;;5049463;28;20076;-68